sensor_id;sensor_type;location;lat;lon;timestamp;P1;durP1;ratioP1;P2;durP2;ratioP2
27163;SDS011;14685;50.618;7.024;2022-12-13T00:01:31;26.02;;;14.52;;
27163;SDS011;14685;50.618;7.024;2022-12-13T00:03:59;29.48;;;15.27;;
27163;SDS011;14685;50.618;7.024;2022-12-13T00:06:28;29.58;;;15.25;;
27163;SDS011;14685;50.618;7.024;2022-12-13T00:08:56;28.75;;;16.42;;
27163;SDS011;14685;50.618;7.024;2022-12-13T00:11:26;29.20;;;14.75;;
27163;SDS011;14685;50.618;7.024;2022-12-13T00:13:53;26.20;;;14.93;;
27163;SDS011;14685;50.618;7.024;2022-12-13T00:16:21;31.17;;;15.20;;
27163;SDS011;14685;50.618;7.024;2022-12-13T00:18:50;27.50;;;14.90;;
27163;SDS011;14685;50.618;7.024;2022-12-13T00:21:21;30.63;;;15.48;;
27163;SDS011;14685;50.618;7.024;2022-12-13T00:23:50;31.27;;;15.93;;
27163;SDS011;14685;50.618;7.024;2022-12-13T00:26:18;33.72;;;17.92;;
27163;SDS011;14685;50.618;7.024;2022-12-13T00:28:46;34.35;;;16.80;;
27163;SDS011;14685;50.618;7.024;2022-12-13T00:31:15;30.70;;;16.30;;
27163;SDS011;14685;50.618;7.024;2022-12-13T00:34:03;27.42;;;14.85;;
27163;SDS011;14685;50.618;7.024;2022-12-13T00:36:29;33.92;;;16.92;;
27163;SDS011;14685;50.618;7.024;2022-12-13T00:38:56;39.00;;;18.77;;
27163;SDS011;14685;50.618;7.024;2022-12-13T00:41:27;36.15;;;18.80;;
27163;SDS011;14685;50.618;7.024;2022-12-13T00:43:56;32.60;;;18.33;;
27163;SDS011;14685;50.618;7.024;2022-12-13T00:46:24;36.63;;;18.60;;
27163;SDS011;14685;50.618;7.024;2022-12-13T00:48:53;37.45;;;18.88;;
27163;SDS011;14685;50.618;7.024;2022-12-13T00:51:21;36.60;;;19.10;;
27163;SDS011;14685;50.618;7.024;2022-12-13T00:53:48;38.38;;;18.35;;
27163;SDS011;14685;50.618;7.024;2022-12-13T00:56:16;36.35;;;18.35;;
27163;SDS011;14685;50.618;7.024;2022-12-13T00:58:47;40.50;;;19.13;;
27163;SDS011;14685;50.618;7.024;2022-12-13T01:01:18;36.30;;;19.67;;
27163;SDS011;14685;50.618;7.024;2022-12-13T01:03:47;31.50;;;17.35;;
27163;SDS011;14685;50.618;7.024;2022-12-13T01:06:14;34.83;;;17.38;;
27163;SDS011;14685;50.618;7.024;2022-12-13T01:08:44;38.20;;;18.45;;
27163;SDS011;14685;50.618;7.024;2022-12-13T01:11:12;39.45;;;19.33;;
27163;SDS011;14685;50.618;7.024;2022-12-13T01:13:39;37.10;;;17.83;;
27163;SDS011;14685;50.618;7.024;2022-12-13T01:16:07;38.30;;;18.67;;
27163;SDS011;14685;50.618;7.024;2022-12-13T01:21:29;32.10;;;16.70;;
27163;SDS011;14685;50.618;7.024;2022-12-13T01:23:59;32.00;;;17.90;;
27163;SDS011;14685;50.618;7.024;2022-12-13T01:26:27;31.75;;;17.95;;
27163;SDS011;14685;50.618;7.024;2022-12-13T01:28:54;33.10;;;16.70;;
27163;SDS011;14685;50.618;7.024;2022-12-13T01:31:21;35.13;;;19.33;;
27163;SDS011;14685;50.618;7.024;2022-12-13T01:33:48;38.08;;;18.80;;
27163;SDS011;14685;50.618;7.024;2022-12-13T01:36:16;35.28;;;18.08;;
27163;SDS011;14685;50.618;7.024;2022-12-13T01:38:53;35.78;;;19.17;;
27163;SDS011;14685;50.618;7.024;2022-12-13T01:41:24;34.35;;;17.90;;
27163;SDS011;14685;50.618;7.024;2022-12-13T01:43:53;36.03;;;19.42;;
27163;SDS011;14685;50.618;7.024;2022-12-13T01:48:58;30.95;;;16.65;;
27163;SDS011;14685;50.618;7.024;2022-12-13T01:54:22;30.55;;;17.15;;
27163;SDS011;14685;50.618;7.024;2022-12-13T01:56:59;31.90;;;17.42;;
27163;SDS011;14685;50.618;7.024;2022-12-13T01:59:29;28.27;;;15.93;;
27163;SDS011;14685;50.618;7.024;2022-12-13T02:01:57;33.38;;;17.73;;
27163;SDS011;14685;50.618;7.024;2022-12-13T02:04:29;30.27;;;16.38;;
27163;SDS011;14685;50.618;7.024;2022-12-13T02:07:10;37.22;;;17.40;;
27163;SDS011;14685;50.618;7.024;2022-12-13T02:09:48;35.20;;;16.27;;
27163;SDS011;14685;50.618;7.024;2022-12-13T02:12:22;32.00;;;16.60;;
27163;SDS011;14685;50.618;7.024;2022-12-13T02:14:56;31.30;;;17.63;;
27163;SDS011;14685;50.618;7.024;2022-12-13T02:17:27;33.70;;;16.10;;
27163;SDS011;14685;50.618;7.024;2022-12-13T02:24:00;32.58;;;16.80;;
27163;SDS011;14685;50.618;7.024;2022-12-13T02:34:41;39.85;;;20.20;;
27163;SDS011;14685;50.618;7.024;2022-12-13T02:43:10;47.47;;;22.67;;
27163;SDS011;14685;50.618;7.024;2022-12-13T02:45:59;51.60;;;24.13;;
27163;SDS011;14685;50.618;7.024;2022-12-13T02:48:29;52.88;;;24.92;;
27163;SDS011;14685;50.618;7.024;2022-12-13T02:51:01;55.28;;;25.92;;
27163;SDS011;14685;50.618;7.024;2022-12-13T02:53:30;49.83;;;24.63;;
27163;SDS011;14685;50.618;7.024;2022-12-13T02:55:59;52.70;;;26.00;;
27163;SDS011;14685;50.618;7.024;2022-12-13T02:58:29;50.38;;;24.48;;
27163;SDS011;14685;50.618;7.024;2022-12-13T03:04:10;52.08;;;23.73;;
27163;SDS011;14685;50.618;7.024;2022-12-13T03:07:06;52.42;;;25.77;;
27163;SDS011;14685;50.618;7.024;2022-12-13T03:09:55;55.25;;;25.13;;
27163;SDS011;14685;50.618;7.024;2022-12-13T03:12:40;59.70;;;28.17;;
27163;SDS011;14685;50.618;7.024;2022-12-13T03:18:21;49.92;;;24.13;;
27163;SDS011;14685;50.618;7.024;2022-12-13T03:20:52;52.53;;;25.40;;
27163;SDS011;14685;50.618;7.024;2022-12-13T03:23:23;52.08;;;26.00;;
27163;SDS011;14685;50.618;7.024;2022-12-13T03:25:51;54.45;;;26.58;;
27163;SDS011;14685;50.618;7.024;2022-12-13T03:28:20;48.92;;;23.65;;
27163;SDS011;14685;50.618;7.024;2022-12-13T03:30:49;48.95;;;24.73;;
27163;SDS011;14685;50.618;7.024;2022-12-13T03:33:15;54.22;;;26.27;;
27163;SDS011;14685;50.618;7.024;2022-12-13T03:35:42;44.80;;;22.80;;
27163;SDS011;14685;50.618;7.024;2022-12-13T03:38:12;52.13;;;24.55;;
27163;SDS011;14685;50.618;7.024;2022-12-13T03:40:48;50.78;;;23.15;;
27163;SDS011;14685;50.618;7.024;2022-12-13T03:43:18;46.70;;;23.65;;
27163;SDS011;14685;50.618;7.024;2022-12-13T03:45:47;43.50;;;21.15;;
27163;SDS011;14685;50.618;7.024;2022-12-13T03:48:15;44.63;;;22.85;;
27163;SDS011;14685;50.618;7.024;2022-12-13T03:50:50;45.92;;;21.80;;
27163;SDS011;14685;50.618;7.024;2022-12-13T03:53:18;47.90;;;22.25;;
27163;SDS011;14685;50.618;7.024;2022-12-13T03:55:56;45.67;;;21.90;;
27163;SDS011;14685;50.618;7.024;2022-12-13T03:58:26;47.13;;;22.13;;
27163;SDS011;14685;50.618;7.024;2022-12-13T04:01:09;41.92;;;21.33;;
27163;SDS011;14685;50.618;7.024;2022-12-13T04:03:39;49.53;;;23.92;;
27163;SDS011;14685;50.618;7.024;2022-12-13T04:06:11;47.42;;;24.77;;
27163;SDS011;14685;50.618;7.024;2022-12-13T04:08:49;60.05;;;26.70;;
27163;SDS011;14685;50.618;7.024;2022-12-13T04:11:17;68.53;;;30.83;;
27163;SDS011;14685;50.618;7.024;2022-12-13T04:14:08;56.90;;;26.33;;
27163;SDS011;14685;50.618;7.024;2022-12-13T04:16:38;52.50;;;25.38;;
27163;SDS011;14685;50.618;7.024;2022-12-13T04:19:04;49.10;;;21.85;;
27163;SDS011;14685;50.618;7.024;2022-12-13T04:21:31;47.10;;;25.05;;
27163;SDS011;14685;50.618;7.024;2022-12-13T04:23:58;49.85;;;23.98;;
27163;SDS011;14685;50.618;7.024;2022-12-13T04:26:26;51.15;;;25.60;;
27163;SDS011;14685;50.618;7.024;2022-12-13T04:28:55;44.22;;;22.50;;
27163;SDS011;14685;50.618;7.024;2022-12-13T04:31:22;43.17;;;21.02;;
27163;SDS011;14685;50.618;7.024;2022-12-13T04:33:49;47.33;;;20.65;;
27163;SDS011;14685;50.618;7.024;2022-12-13T04:36:16;39.25;;;20.48;;
27163;SDS011;14685;50.618;7.024;2022-12-13T04:38:57;44.03;;;21.45;;
27163;SDS011;14685;50.618;7.024;2022-12-13T04:41:26;41.22;;;22.58;;
27163;SDS011;14685;50.618;7.024;2022-12-13T04:43:59;44.83;;;22.23;;
27163;SDS011;14685;50.618;7.024;2022-12-13T04:46:27;48.53;;;22.58;;
27163;SDS011;14685;50.618;7.024;2022-12-13T04:48:54;43.13;;;22.33;;
27163;SDS011;14685;50.618;7.024;2022-12-13T04:51:23;43.55;;;21.23;;
27163;SDS011;14685;50.618;7.024;2022-12-13T04:53:50;40.67;;;21.30;;
27163;SDS011;14685;50.618;7.024;2022-12-13T04:56:19;39.58;;;19.80;;
27163;SDS011;14685;50.618;7.024;2022-12-13T04:58:45;44.55;;;21.35;;
27163;SDS011;14685;50.618;7.024;2022-12-13T05:01:14;45.80;;;22.20;;
27163;SDS011;14685;50.618;7.024;2022-12-13T05:03:42;42.55;;;21.13;;
27163;SDS011;14685;50.618;7.024;2022-12-13T05:06:11;43.92;;;22.35;;
27163;SDS011;14685;50.618;7.024;2022-12-13T05:08:52;43.47;;;22.52;;
27163;SDS011;14685;50.618;7.024;2022-12-13T05:11:26;39.47;;;22.27;;
27163;SDS011;14685;50.618;7.024;2022-12-13T05:14:01;44.55;;;22.55;;
27163;SDS011;14685;50.618;7.024;2022-12-13T05:16:27;49.42;;;23.92;;
27163;SDS011;14685;50.618;7.024;2022-12-13T05:18:56;43.88;;;22.02;;
27163;SDS011;14685;50.618;7.024;2022-12-13T05:21:26;47.40;;;24.02;;
27163;SDS011;14685;50.618;7.024;2022-12-13T05:23:54;50.15;;;23.33;;
27163;SDS011;14685;50.618;7.024;2022-12-13T05:26:21;43.67;;;21.27;;
27163;SDS011;14685;50.618;7.024;2022-12-13T05:28:48;41.75;;;21.95;;
27163;SDS011;14685;50.618;7.024;2022-12-13T05:31:15;40.35;;;20.55;;
27163;SDS011;14685;50.618;7.024;2022-12-13T05:33:49;41.10;;;21.20;;
27163;SDS011;14685;50.618;7.024;2022-12-13T05:36:16;43.50;;;21.65;;
27163;SDS011;14685;50.618;7.024;2022-12-13T05:38:43;37.75;;;19.98;;
27163;SDS011;14685;50.618;7.024;2022-12-13T05:41:12;41.22;;;19.58;;
27163;SDS011;14685;50.618;7.024;2022-12-13T05:43:41;42.30;;;20.98;;
27163;SDS011;14685;50.618;7.024;2022-12-13T05:46:09;48.08;;;23.00;;
27163;SDS011;14685;50.618;7.024;2022-12-13T05:48:38;47.38;;;24.10;;
27163;SDS011;14685;50.618;7.024;2022-12-13T05:51:05;44.67;;;24.35;;
27163;SDS011;14685;50.618;7.024;2022-12-13T05:53:37;47.83;;;21.83;;
27163;SDS011;14685;50.618;7.024;2022-12-13T05:56:08;39.47;;;20.25;;
27163;SDS011;14685;50.618;7.024;2022-12-13T05:58:36;40.28;;;20.38;;
27163;SDS011;14685;50.618;7.024;2022-12-13T06:01:07;42.90;;;21.65;;
27163;SDS011;14685;50.618;7.024;2022-12-13T06:03:37;47.13;;;21.70;;
27163;SDS011;14685;50.618;7.024;2022-12-13T06:06:04;39.70;;;20.67;;
27163;SDS011;14685;50.618;7.024;2022-12-13T06:08:33;36.15;;;18.83;;
27163;SDS011;14685;50.618;7.024;2022-12-13T06:11:01;42.15;;;20.58;;
27163;SDS011;14685;50.618;7.024;2022-12-13T06:13:37;43.92;;;21.15;;
27163;SDS011;14685;50.618;7.024;2022-12-13T06:16:09;39.35;;;21.50;;
27163;SDS011;14685;50.618;7.024;2022-12-13T06:18:49;44.33;;;22.27;;
27163;SDS011;14685;50.618;7.024;2022-12-13T06:21:28;50.90;;;24.55;;
27163;SDS011;14685;50.618;7.024;2022-12-13T06:24:12;46.92;;;24.08;;
27163;SDS011;14685;50.618;7.024;2022-12-13T06:26:44;43.10;;;22.88;;
27163;SDS011;14685;50.618;7.024;2022-12-13T06:29:12;42.17;;;21.20;;
27163;SDS011;14685;50.618;7.024;2022-12-13T06:31:59;43.92;;;22.65;;
27163;SDS011;14685;50.618;7.024;2022-12-13T06:34:32;47.92;;;24.70;;
27163;SDS011;14685;50.618;7.024;2022-12-13T06:37:06;49.22;;;23.05;;
27163;SDS011;14685;50.618;7.024;2022-12-13T06:39:36;50.20;;;25.40;;
27163;SDS011;14685;50.618;7.024;2022-12-13T06:42:04;43.90;;;22.92;;
27163;SDS011;14685;50.618;7.024;2022-12-13T06:44:32;45.63;;;23.42;;
27163;SDS011;14685;50.618;7.024;2022-12-13T06:47:00;46.42;;;22.85;;
27163;SDS011;14685;50.618;7.024;2022-12-13T06:49:37;49.22;;;23.42;;
27163;SDS011;14685;50.618;7.024;2022-12-13T06:52:07;47.88;;;24.75;;
27163;SDS011;14685;50.618;7.024;2022-12-13T06:54:36;46.58;;;23.17;;
27163;SDS011;14685;50.618;7.024;2022-12-13T06:57:06;45.55;;;22.80;;
27163;SDS011;14685;50.618;7.024;2022-12-13T06:59:35;50.08;;;24.25;;
27163;SDS011;14685;50.618;7.024;2022-12-13T07:02:02;51.40;;;24.02;;
27163;SDS011;14685;50.618;7.024;2022-12-13T07:04:30;46.25;;;23.52;;
27163;SDS011;14685;50.618;7.024;2022-12-13T07:06:57;52.42;;;24.42;;
27163;SDS011;14685;50.618;7.024;2022-12-13T07:09:26;54.72;;;25.20;;
27163;SDS011;14685;50.618;7.024;2022-12-13T07:11:53;51.83;;;23.90;;
27163;SDS011;14685;50.618;7.024;2022-12-13T07:14:20;50.08;;;24.70;;
27163;SDS011;14685;50.618;7.024;2022-12-13T07:16:47;45.28;;;24.25;;
27163;SDS011;14685;50.618;7.024;2022-12-13T07:19:14;49.17;;;23.85;;
27163;SDS011;14685;50.618;7.024;2022-12-13T07:21:49;54.95;;;26.33;;
27163;SDS011;14685;50.618;7.024;2022-12-13T07:24:17;52.55;;;24.98;;
27163;SDS011;14685;50.618;7.024;2022-12-13T07:26:44;47.80;;;23.83;;
27163;SDS011;14685;50.618;7.024;2022-12-13T07:29:10;46.75;;;24.33;;
27163;SDS011;14685;50.618;7.024;2022-12-13T07:31:50;47.70;;;22.85;;
27163;SDS011;14685;50.618;7.024;2022-12-13T07:34:17;44.45;;;22.58;;
27163;SDS011;14685;50.618;7.024;2022-12-13T07:36:43;41.83;;;21.33;;
27163;SDS011;14685;50.618;7.024;2022-12-13T07:39:10;48.83;;;21.88;;
27163;SDS011;14685;50.618;7.024;2022-12-13T07:41:37;42.83;;;21.00;;
27163;SDS011;14685;50.618;7.024;2022-12-13T07:44:04;44.95;;;22.70;;
27163;SDS011;14685;50.618;7.024;2022-12-13T07:46:34;39.90;;;21.40;;
27163;SDS011;14685;50.618;7.024;2022-12-13T07:49:02;38.90;;;21.13;;
27163;SDS011;14685;50.618;7.024;2022-12-13T07:51:31;45.20;;;20.88;;
27163;SDS011;14685;50.618;7.024;2022-12-13T07:54:00;44.08;;;22.35;;
27163;SDS011;14685;50.618;7.024;2022-12-13T07:56:32;46.53;;;21.13;;
27163;SDS011;14685;50.618;7.024;2022-12-13T07:58:59;43.17;;;22.58;;
27163;SDS011;14685;50.618;7.024;2022-12-13T08:01:32;45.63;;;22.67;;
27163;SDS011;14685;50.618;7.024;2022-12-13T08:04:01;38.42;;;19.20;;
27163;SDS011;14685;50.618;7.024;2022-12-13T08:06:28;40.80;;;18.77;;
27163;SDS011;14685;50.618;7.024;2022-12-13T08:08:55;36.00;;;17.45;;
27163;SDS011;14685;50.618;7.024;2022-12-13T08:11:22;39.10;;;20.75;;
27163;SDS011;14685;50.618;7.024;2022-12-13T08:13:49;37.72;;;18.85;;
27163;SDS011;14685;50.618;7.024;2022-12-13T08:16:16;34.38;;;17.92;;
27163;SDS011;14685;50.618;7.024;2022-12-13T08:18:57;39.28;;;18.90;;
27163;SDS011;14685;50.618;7.024;2022-12-13T08:21:31;37.30;;;18.02;;
27163;SDS011;14685;50.618;7.024;2022-12-13T08:24:21;35.45;;;18.45;;
27163;SDS011;14685;50.618;7.024;2022-12-13T08:26:50;33.67;;;15.95;;
27163;SDS011;14685;50.618;7.024;2022-12-13T08:29:18;38.03;;;19.00;;
27163;SDS011;14685;50.618;7.024;2022-12-13T08:31:59;34.75;;;17.20;;
27163;SDS011;14685;50.618;7.024;2022-12-13T08:34:27;33.75;;;16.33;;
27163;SDS011;14685;50.618;7.024;2022-12-13T08:36:54;38.88;;;17.77;;
27163;SDS011;14685;50.618;7.024;2022-12-13T08:39:29;33.97;;;17.48;;
27163;SDS011;14685;50.618;7.024;2022-12-13T08:42:04;36.75;;;16.77;;
27163;SDS011;14685;50.618;7.024;2022-12-13T08:44:49;33.85;;;16.13;;
27163;SDS011;14685;50.618;7.024;2022-12-13T08:47:21;38.95;;;18.63;;
27163;SDS011;14685;50.618;7.024;2022-12-13T08:49:53;32.58;;;17.75;;
27163;SDS011;14685;50.618;7.024;2022-12-13T08:52:28;29.17;;;14.57;;
27163;SDS011;14685;50.618;7.024;2022-12-13T08:55:06;39.58;;;17.13;;
27163;SDS011;14685;50.618;7.024;2022-12-13T08:57:38;34.50;;;17.70;;
27163;SDS011;14685;50.618;7.024;2022-12-13T09:00:08;33.50;;;17.73;;
27163;SDS011;14685;50.618;7.024;2022-12-13T09:02:40;35.78;;;16.55;;
27163;SDS011;14685;50.618;7.024;2022-12-13T09:05:07;31.58;;;16.15;;
27163;SDS011;14685;50.618;7.024;2022-12-13T09:07:35;32.22;;;16.30;;
27163;SDS011;14685;50.618;7.024;2022-12-13T09:10:04;34.03;;;16.80;;
27163;SDS011;14685;50.618;7.024;2022-12-13T09:12:52;31.92;;;14.55;;
27163;SDS011;14685;50.618;7.024;2022-12-13T09:15:29;32.30;;;16.98;;
27163;SDS011;14685;50.618;7.024;2022-12-13T09:18:00;31.40;;;16.70;;
27163;SDS011;14685;50.618;7.024;2022-12-13T09:20:30;35.42;;;17.55;;
27163;SDS011;14685;50.618;7.024;2022-12-13T09:23:06;35.00;;;17.02;;
27163;SDS011;14685;50.618;7.024;2022-12-13T09:25:52;32.65;;;16.77;;
27163;SDS011;14685;50.618;7.024;2022-12-13T09:28:31;33.67;;;16.92;;
27163;SDS011;14685;50.618;7.024;2022-12-13T09:31:00;35.22;;;17.27;;
27163;SDS011;14685;50.618;7.024;2022-12-13T09:33:28;32.25;;;17.55;;
27163;SDS011;14685;50.618;7.024;2022-12-13T09:35:56;33.17;;;17.48;;
27163;SDS011;14685;50.618;7.024;2022-12-13T09:38:26;35.95;;;17.50;;
27163;SDS011;14685;50.618;7.024;2022-12-13T09:41:08;34.50;;;17.05;;
27163;SDS011;14685;50.618;7.024;2022-12-13T09:43:55;33.13;;;17.52;;
27163;SDS011;14685;50.618;7.024;2022-12-13T09:46:29;31.63;;;16.08;;
27163;SDS011;14685;50.618;7.024;2022-12-13T09:49:13;32.17;;;16.75;;
27163;SDS011;14685;50.618;7.024;2022-12-13T09:51:51;30.45;;;15.10;;
27163;SDS011;14685;50.618;7.024;2022-12-13T09:54:36;29.15;;;14.68;;
27163;SDS011;14685;50.618;7.024;2022-12-13T09:57:17;30.65;;;15.23;;
27163;SDS011;14685;50.618;7.024;2022-12-13T09:59:57;31.80;;;15.80;;
27163;SDS011;14685;50.618;7.024;2022-12-13T10:02:27;34.33;;;16.20;;
27163;SDS011;14685;50.618;7.024;2022-12-13T10:05:11;31.13;;;15.15;;
27163;SDS011;14685;50.618;7.024;2022-12-13T10:08:07;33.10;;;15.80;;
27163;SDS011;14685;50.618;7.024;2022-12-13T10:10:39;29.52;;;15.25;;
27163;SDS011;14685;50.618;7.024;2022-12-13T10:13:13;27.42;;;14.85;;
27163;SDS011;14685;50.618;7.024;2022-12-13T10:16:00;30.58;;;16.08;;
27163;SDS011;14685;50.618;7.024;2022-12-13T10:18:35;31.48;;;15.48;;
27163;SDS011;14685;50.618;7.024;2022-12-13T10:21:09;27.80;;;12.82;;
27163;SDS011;14685;50.618;7.024;2022-12-13T10:23:39;29.85;;;15.57;;
27163;SDS011;14685;50.618;7.024;2022-12-13T10:26:27;31.75;;;15.82;;
27163;SDS011;14685;50.618;7.024;2022-12-13T10:29:02;33.40;;;16.13;;
27163;SDS011;14685;50.618;7.024;2022-12-13T10:31:37;29.40;;;15.43;;
27163;SDS011;14685;50.618;7.024;2022-12-13T10:34:12;30.65;;;16.00;;
27163;SDS011;14685;50.618;7.024;2022-12-13T10:36:54;27.77;;;15.05;;
27163;SDS011;14685;50.618;7.024;2022-12-13T10:39:38;30.85;;;15.50;;
27163;SDS011;14685;50.618;7.024;2022-12-13T10:42:13;31.75;;;15.23;;
27163;SDS011;14685;50.618;7.024;2022-12-13T10:45:13;32.20;;;15.98;;
27163;SDS011;14685;50.618;7.024;2022-12-13T10:47:41;29.98;;;14.75;;
27163;SDS011;14685;50.618;7.024;2022-12-13T10:50:22;27.27;;;13.30;;
27163;SDS011;14685;50.618;7.024;2022-12-13T10:52:53;27.63;;;14.32;;
27163;SDS011;14685;50.618;7.024;2022-12-13T10:55:26;29.38;;;15.40;;
27163;SDS011;14685;50.618;7.024;2022-12-13T10:58:00;29.90;;;15.38;;
27163;SDS011;14685;50.618;7.024;2022-12-13T11:03:04;28.77;;;14.82;;
27163;SDS011;14685;50.618;7.024;2022-12-13T11:05:33;30.33;;;15.90;;
27163;SDS011;14685;50.618;7.024;2022-12-13T11:08:20;27.95;;;13.13;;
27163;SDS011;14685;50.618;7.024;2022-12-13T11:10:55;27.40;;;13.70;;
27163;SDS011;14685;50.618;7.024;2022-12-13T11:13:39;28.52;;;13.98;;
27163;SDS011;14685;50.618;7.024;2022-12-13T11:16:23;24.95;;;12.90;;
27163;SDS011;14685;50.618;7.024;2022-12-13T11:19:23;25.83;;;13.60;;
27163;SDS011;14685;50.618;7.024;2022-12-13T11:22:01;24.20;;;13.10;;
27163;SDS011;14685;50.618;7.024;2022-12-13T11:24:29;23.95;;;13.43;;
27163;SDS011;14685;50.618;7.024;2022-12-13T11:27:01;26.83;;;14.68;;
27163;SDS011;14685;50.618;7.024;2022-12-13T11:30:10;27.45;;;13.25;;
27163;SDS011;14685;50.618;7.024;2022-12-13T11:41:24;25.52;;;13.30;;
27163;SDS011;14685;50.618;7.024;2022-12-13T11:47:23;26.98;;;13.40;;
27163;SDS011;14685;50.618;7.024;2022-12-13T11:49:56;27.13;;;13.75;;
27163;SDS011;14685;50.618;7.024;2022-12-13T11:52:26;28.85;;;14.00;;
27163;SDS011;14685;50.618;7.024;2022-12-13T11:55:00;30.65;;;14.90;;
27163;SDS011;14685;50.618;7.024;2022-12-13T12:00:29;28.77;;;14.15;;
27163;SDS011;14685;50.618;7.024;2022-12-13T12:03:19;24.33;;;13.68;;
27163;SDS011;14685;50.618;7.024;2022-12-13T12:05:50;25.25;;;13.50;;
27163;SDS011;14685;50.618;7.024;2022-12-13T12:11:28;27.58;;;13.98;;
27163;SDS011;14685;50.618;7.024;2022-12-13T12:17:13;26.67;;;14.75;;
27163;SDS011;14685;50.618;7.024;2022-12-13T12:19:42;29.13;;;15.75;;
27163;SDS011;14685;50.618;7.024;2022-12-13T12:30:09;25.20;;;14.27;;
27163;SDS011;14685;50.618;7.024;2022-12-13T12:49:41;33.47;;;15.50;;
27163;SDS011;14685;50.618;7.024;2022-12-13T12:55:26;25.17;;;13.23;;
27163;SDS011;14685;50.618;7.024;2022-12-13T13:04:15;23.48;;;12.68;;
27163;SDS011;14685;50.618;7.024;2022-12-13T13:06:53;25.33;;;13.07;;
27163;SDS011;14685;50.618;7.024;2022-12-13T13:09:48;27.27;;;13.75;;
27163;SDS011;14685;50.618;7.024;2022-12-13T13:12:20;28.08;;;13.35;;
27163;SDS011;14685;50.618;7.024;2022-12-13T13:14:55;25.77;;;13.77;;
27163;SDS011;14685;50.618;7.024;2022-12-13T13:25:30;26.98;;;12.68;;
27163;SDS011;14685;50.618;7.024;2022-12-13T13:28:02;28.25;;;13.93;;
27163;SDS011;14685;50.618;7.024;2022-12-13T13:31:26;25.42;;;13.50;;
27163;SDS011;14685;50.618;7.024;2022-12-13T13:33:46;25.17;;;13.32;;
27163;SDS011;14685;50.618;7.024;2022-12-13T13:39:16;29.67;;;13.52;;
27163;SDS011;14685;50.618;7.024;2022-12-13T13:42:07;24.20;;;11.95;;
27163;SDS011;14685;50.618;7.024;2022-12-13T13:44:53;23.85;;;12.65;;
27163;SDS011;14685;50.618;7.024;2022-12-13T13:50:01;24.60;;;12.75;;
27163;SDS011;14685;50.618;7.024;2022-12-13T14:12:55;24.48;;;12.95;;
27163;SDS011;14685;50.618;7.024;2022-12-13T14:15:56;26.33;;;14.30;;
27163;SDS011;14685;50.618;7.024;2022-12-13T14:23:49;25.75;;;13.30;;
27163;SDS011;14685;50.618;7.024;2022-12-13T14:29:29;26.98;;;12.65;;
27163;SDS011;14685;50.618;7.024;2022-12-13T14:32:16;26.23;;;13.63;;
27163;SDS011;14685;50.618;7.024;2022-12-13T14:34:52;27.00;;;13.27;;
27163;SDS011;14685;50.618;7.024;2022-12-13T14:39:56;29.58;;;12.93;;
27163;SDS011;14685;50.618;7.024;2022-12-13T14:42:26;24.17;;;12.65;;
27163;SDS011;14685;50.618;7.024;2022-12-13T14:47:42;22.95;;;12.77;;
27163;SDS011;14685;50.618;7.024;2022-12-13T14:50:10;24.42;;;13.85;;
27163;SDS011;14685;50.618;7.024;2022-12-13T14:52:41;26.55;;;14.55;;
27163;SDS011;14685;50.618;7.024;2022-12-13T14:55:28;24.65;;;12.18;;
27163;SDS011;14685;50.618;7.024;2022-12-13T14:58:02;25.40;;;12.73;;
27163;SDS011;14685;50.618;7.024;2022-12-13T15:00:40;25.42;;;12.77;;
27163;SDS011;14685;50.618;7.024;2022-12-13T15:03:09;31.05;;;14.23;;
27163;SDS011;14685;50.618;7.024;2022-12-13T15:05:58;24.45;;;13.07;;
27163;SDS011;14685;50.618;7.024;2022-12-13T15:08:26;31.70;;;13.55;;
27163;SDS011;14685;50.618;7.024;2022-12-13T15:10:54;26.00;;;13.98;;
27163;SDS011;14685;50.618;7.024;2022-12-13T15:16:34;30.02;;;14.40;;
27163;SDS011;14685;50.618;7.024;2022-12-13T15:19:20;29.02;;;16.27;;
27163;SDS011;14685;50.618;7.024;2022-12-13T15:21:57;33.10;;;15.98;;
27163;SDS011;14685;50.618;7.024;2022-12-13T15:24:31;28.65;;;14.00;;
27163;SDS011;14685;50.618;7.024;2022-12-13T15:27:03;25.67;;;14.23;;
27163;SDS011;14685;50.618;7.024;2022-12-13T15:29:31;28.05;;;14.60;;
27163;SDS011;14685;50.618;7.024;2022-12-13T15:32:02;27.27;;;14.60;;
27163;SDS011;14685;50.618;7.024;2022-12-13T15:34:32;30.08;;;15.30;;
27163;SDS011;14685;50.618;7.024;2022-12-13T15:37:01;32.05;;;15.73;;
27163;SDS011;14685;50.618;7.024;2022-12-13T15:39:54;27.30;;;14.25;;
27163;SDS011;14685;50.618;7.024;2022-12-13T15:42:28;27.27;;;13.67;;
27163;SDS011;14685;50.618;7.024;2022-12-13T15:45:02;30.00;;;15.82;;
27163;SDS011;14685;50.618;7.024;2022-12-13T15:47:31;31.52;;;16.67;;
27163;SDS011;14685;50.618;7.024;2022-12-13T15:49:59;27.10;;;14.63;;
27163;SDS011;14685;50.618;7.024;2022-12-13T15:57:51;29.50;;;15.38;;
27163;SDS011;14685;50.618;7.024;2022-12-13T16:00:23;31.58;;;16.33;;
27163;SDS011;14685;50.618;7.024;2022-12-13T16:03:01;32.92;;;18.52;;
27163;SDS011;14685;50.618;7.024;2022-12-13T16:05:36;27.33;;;15.20;;
27163;SDS011;14685;50.618;7.024;2022-12-13T16:08:32;28.80;;;14.52;;
27163;SDS011;14685;50.618;7.024;2022-12-13T16:11:02;28.13;;;14.10;;
27163;SDS011;14685;50.618;7.024;2022-12-13T16:13:31;22.75;;;13.25;;
27163;SDS011;14685;50.618;7.024;2022-12-13T16:16:00;28.67;;;14.68;;
27163;SDS011;14685;50.618;7.024;2022-12-13T16:21:30;23.65;;;13.90;;
27163;SDS011;14685;50.618;7.024;2022-12-13T16:23:58;27.20;;;14.10;;
27163;SDS011;14685;50.618;7.024;2022-12-13T16:26:26;26.13;;;14.30;;
27163;SDS011;14685;50.618;7.024;2022-12-13T16:28:54;25.90;;;14.43;;
27163;SDS011;14685;50.618;7.024;2022-12-13T16:31:25;27.92;;;14.35;;
27163;SDS011;14685;50.618;7.024;2022-12-13T16:34:01;26.83;;;14.48;;
27163;SDS011;14685;50.618;7.024;2022-12-13T16:36:29;30.85;;;14.43;;
27163;SDS011;14685;50.618;7.024;2022-12-13T16:38:56;31.85;;;17.13;;
27163;SDS011;14685;50.618;7.024;2022-12-13T16:41:24;27.13;;;13.85;;
27163;SDS011;14685;50.618;7.024;2022-12-13T16:43:55;26.30;;;14.80;;
27163;SDS011;14685;50.618;7.024;2022-12-13T16:46:24;30.35;;;17.63;;
27163;SDS011;14685;50.618;7.024;2022-12-13T16:49:15;23.92;;;14.38;;
27163;SDS011;14685;50.618;7.024;2022-12-13T16:51:50;26.92;;;14.13;;
27163;SDS011;14685;50.618;7.024;2022-12-13T16:54:17;30.50;;;14.57;;
27163;SDS011;14685;50.618;7.024;2022-12-13T16:56:46;28.85;;;13.95;;
27163;SDS011;14685;50.618;7.024;2022-12-13T16:59:16;23.88;;;13.63;;
27163;SDS011;14685;50.618;7.024;2022-12-13T17:01:46;29.83;;;15.50;;
27163;SDS011;14685;50.618;7.024;2022-12-13T17:04:19;27.63;;;15.30;;
27163;SDS011;14685;50.618;7.024;2022-12-13T17:06:50;31.02;;;16.38;;
27163;SDS011;14685;50.618;7.024;2022-12-13T17:09:20;28.33;;;15.43;;
27163;SDS011;14685;50.618;7.024;2022-12-13T17:11:47;30.90;;;15.57;;
27163;SDS011;14685;50.618;7.024;2022-12-13T17:14:14;33.17;;;15.77;;
27163;SDS011;14685;50.618;7.024;2022-12-13T17:16:42;31.88;;;15.50;;
27163;SDS011;14685;50.618;7.024;2022-12-13T17:19:10;31.33;;;15.05;;
27163;SDS011;14685;50.618;7.024;2022-12-13T17:21:37;27.60;;;14.70;;
27163;SDS011;14685;50.618;7.024;2022-12-13T17:24:04;34.22;;;15.65;;